createdAt,value
2023-05-21T00:03:03.415Z,76.47
2023-05-21T00:13:29.078Z,76.68
2023-05-21T00:23:57.727Z,77.15
2023-05-21T00:34:22.969Z,77.70
2023-05-21T00:44:50.525Z,78.53
2023-05-21T00:55:16.643Z,79.15
2023-05-21T01:05:45.484Z,79.65
2023-05-21T01:16:14.440Z,80.87
2023-05-21T01:26:43.042Z,81.78
2023-05-21T01:37:38.225Z,82.57
2023-05-21T01:48:07.225Z,83.44
2023-05-21T01:58:34.853Z,84.55
2023-05-21T02:09:00.401Z,85.61
2023-05-21T02:19:25.617Z,86.55
2023-05-21T02:29:50.427Z,86.90
2023-05-21T02:40:16.154Z,87.37
2023-05-21T02:50:54.382Z,87.43
2023-05-21T03:02:19.811Z,87.94
2023-05-21T03:13:09.829Z,88.18
2023-05-21T03:23:37.486Z,87.73
2023-05-21T03:34:05.301Z,87.21
2023-05-21T03:44:32.945Z,86.67
2023-05-21T03:55:08.992Z,86.72
2023-05-21T04:05:34.596Z,87.11
2023-05-21T04:16:03.607Z,86.74
2023-05-21T04:26:35.904Z,86.32
2023-05-21T04:37:04.536Z,85.65
2023-05-21T04:47:30.776Z,84.87
2023-05-21T04:57:56.553Z,83.98
2023-05-21T05:08:24.704Z,83.08
2023-05-21T05:18:55.257Z,82.29
2023-05-21T05:30:03.298Z,81.11
2023-05-21T05:40:45.899Z,80.26
2023-05-21T05:51:10.361Z,79.51
2023-05-21T06:01:35.234Z,78.80
2023-05-21T06:11:59.514Z,78.25
2023-05-21T06:22:25.470Z,77.18
2023-05-21T06:32:51.154Z,76.63
2023-05-21T06:43:16.028Z,75.52
2023-05-21T06:54:13.254Z,74.64
2023-05-21T07:04:38.377Z,73.74
2023-05-21T07:15:03.098Z,73.20
2023-05-21T07:25:28.264Z,72.44
2023-05-21T07:35:52.777Z,71.89
2023-05-21T07:46:17.091Z,70.80
2023-05-21T07:56:42.207Z,71.18
2023-05-21T08:07:11.203Z,70.24
2023-05-21T08:17:35.572Z,69.57
2023-05-21T08:28:00.809Z,69.81
2023-05-21T08:38:26.639Z,69.27
2023-05-21T08:49:14.447Z,68.25
2023-05-21T08:59:43.569Z,67.19
2023-05-21T09:10:18.384Z,66.38
2023-05-21T09:20:44.382Z,65.12
2023-05-21T09:31:09.446Z,64.13
2023-05-21T09:41:36.373Z,62.79
2023-05-21T09:52:01.466Z,61.90
2023-05-21T10:03:13.866Z,60.76
2023-05-21T10:13:45.416Z,60.66
2023-05-21T10:24:10.264Z,59.83
2023-05-21T10:34:37.119Z,58.36
2023-05-21T10:45:16.504Z,59.07
2023-05-21T10:56:07.782Z,58.18
2023-05-21T11:06:32.733Z,56.22
2023-05-21T11:16:57.490Z,55.37
2023-05-21T11:27:32.358Z,55.46
2023-05-21T11:37:56.834Z,54.59
2023-05-21T11:48:28.970Z,52.76
2023-05-21T11:58:57.143Z,50.96
2023-05-21T12:09:22.835Z,50.26
2023-05-21T12:19:48.550Z,51.36
2023-05-21T12:30:13.231Z,51.39
2023-05-21T12:40:39.575Z,50.64
2023-05-21T12:51:04.352Z,48.12
2023-05-21T13:01:28.820Z,48.01
2023-05-21T13:11:53.421Z,46.98
2023-05-21T13:22:18.594Z,47.04
2023-05-21T13:32:43.819Z,46.75
2023-05-21T13:43:09.491Z,46.19
2023-05-21T13:53:33.902Z,47.39
2023-05-21T14:03:58.082Z,47.32
2023-05-21T14:14:23.081Z,46.72
2023-05-21T14:24:47.730Z,46.72
2023-05-21T14:35:11.932Z,44.95
2023-05-21T14:45:36.843Z,44.66
2023-05-21T14:56:02.310Z,44.66
2023-05-21T15:06:28.195Z,42.92
2023-05-21T15:16:53.630Z,41.68
2023-05-21T15:27:18.005Z,42.12
2023-05-21T15:37:43.913Z,42.55
2023-05-21T15:48:08.298Z,42.84
2023-05-21T15:58:33.442Z,43.81
2023-05-21T16:08:57.807Z,44.87
2023-05-21T16:19:22.497Z,45.13
2023-05-21T16:29:47.470Z,46.28
2023-05-21T16:40:14.235Z,46.59
2023-05-21T16:50:40.382Z,47.12
2023-05-21T17:01:05.797Z,47.46
2023-05-21T17:11:30.914Z,47.75
2023-05-21T17:21:56.516Z,47.55
2023-05-21T17:32:21.889Z,48.30
2023-05-21T17:42:46.036Z,49.08
2023-05-21T17:53:10.785Z,49.71
2023-05-21T18:03:36.170Z,49.73
2023-05-21T18:14:00.651Z,49.54
2023-05-21T18:24:25.295Z,49.11
2023-05-21T18:34:50.267Z,49.55
2023-05-21T18:45:15.158Z,49.89
2023-05-21T18:55:39.916Z,50.46
2023-05-21T19:06:04.723Z,51.43
2023-05-21T19:16:29.165Z,52.47
2023-05-21T19:26:54.757Z,52.67
2023-05-21T19:37:19.995Z,53.65
2023-05-21T19:47:44.515Z,53.90
2023-05-21T19:58:11.111Z,54.39
2023-05-21T20:08:36.432Z,55.43
2023-05-21T20:19:02.210Z,55.88
2023-05-21T20:29:29.124Z,56.32
2023-05-21T20:39:58.766Z,56.62
2023-05-21T20:50:26.302Z,56.91
2023-05-21T21:00:50.898Z,57.07
2023-05-21T21:11:15.527Z,57.45
2023-05-21T21:21:39.598Z,58.03
2023-05-21T21:32:03.755Z,58.63
2023-05-21T21:42:28.455Z,59.29
2023-05-21T21:52:56.197Z,59.61
2023-05-21T22:03:20.241Z,59.95
2023-05-21T22:13:46.026Z,60.23
2023-05-21T22:24:15.122Z,60.55
2023-05-21T22:34:49.418Z,61.00
2023-05-21T22:45:14.344Z,61.45
2023-05-21T22:55:38.420Z,61.92
2023-05-21T23:06:02.793Z,62.34
2023-05-21T23:16:27.875Z,62.53
2023-05-21T23:26:52.703Z,62.64
2023-05-21T23:37:17.218Z,62.84
2023-05-21T23:47:41.768Z,63.29
2023-05-21T23:58:05.727Z,63.81
